createdAt,value
2023-04-19T00:01:28.447Z,102076.09
2023-04-19T00:03:56.957Z,102079.91
2023-04-19T00:06:24.645Z,102067.44
2023-04-19T00:08:51.280Z,102064.03
2023-04-19T00:11:17.851Z,102063.16
2023-04-19T00:13:44.393Z,102067.44
2023-04-19T00:16:11.002Z,102057.25
2023-04-19T00:18:38.728Z,102059.72
2023-04-19T00:21:05.885Z,102063.16
2023-04-19T00:23:32.453Z,102059.56
2023-04-19T00:25:59.065Z,102059.13
2023-04-19T00:28:26.144Z,102056.72
2023-04-19T00:30:52.823Z,102060.03
2023-04-19T00:33:19.428Z,102062.63
2023-04-19T00:35:46.027Z,102070.31
2023-04-19T00:38:13.540Z,102074.16
2023-04-19T00:40:40.218Z,102072.56
2023-04-19T00:43:06.828Z,102059.22
2023-04-19T00:45:35.839Z,102071.16
2023-04-19T00:48:02.802Z,102066.72
2023-04-19T00:50:29.805Z,102061.16
2023-04-19T00:52:57.757Z,102062.97
2023-04-19T00:55:25.571Z,102059.03
2023-04-19T00:57:52.316Z,102059.59
2023-04-19T01:00:19.925Z,102061.38
2023-04-19T01:02:47.991Z,102059.06
2023-04-19T01:05:15.052Z,102063.09
2023-04-19T01:07:42.957Z,102058.78
2023-04-19T01:10:10.022Z,102054.88
2023-04-19T01:12:36.927Z,102066.47
2023-04-19T01:15:04.106Z,102065.16
2023-04-19T01:17:33.040Z,102064.59
2023-04-19T01:20:03.932Z,102064.00
2023-04-19T01:22:32.001Z,102061.81
2023-04-19T01:24:58.917Z,102057.78
2023-04-19T01:27:25.700Z,102054.03
2023-04-19T01:29:52.338Z,102058.41
2023-04-19T01:32:18.996Z,102063.28
2023-04-19T01:34:45.607Z,102050.38
2023-04-19T01:37:12.236Z,102051.63
2023-04-19T01:39:41.400Z,102046.25
2023-04-19T01:42:07.955Z,102049.72
2023-04-19T01:44:36.530Z,102044.34
2023-04-19T01:47:04.644Z,102049.25
2023-04-19T01:49:32.597Z,102050.81
2023-04-19T01:51:59.176Z,102051.31
2023-04-19T01:54:27.025Z,102055.00
2023-04-19T01:56:53.591Z,102050.19
2023-04-19T01:59:20.397Z,102058.09
2023-04-19T02:01:47.367Z,102051.56
2023-04-19T02:04:14.312Z,102059.31
2023-04-19T02:06:41.132Z,102062.06
2023-04-19T02:09:08.327Z,102055.75
2023-04-19T02:11:34.895Z,102061.97
2023-04-19T02:14:01.597Z,102053.16
2023-04-19T02:16:28.270Z,102052.22
2023-04-19T02:18:54.950Z,102043.16
2023-04-19T02:21:21.579Z,102049.31
2023-04-19T02:23:48.364Z,102049.97
2023-04-19T02:26:15.361Z,102054.00
2023-04-19T02:28:43.226Z,102052.66
2023-04-19T02:31:09.885Z,102049.31
2023-04-19T02:33:36.593Z,102051.66
2023-04-19T02:36:03.816Z,102048.13
2023-04-19T02:38:30.534Z,102051.06
2023-04-19T02:40:57.243Z,102042.28
2023-04-19T02:43:23.963Z,102048.00
2023-04-19T02:45:51.329Z,102046.50
2023-04-19T02:48:17.906Z,102044.50
2023-04-19T02:50:44.698Z,102051.81
2023-04-19T02:53:11.471Z,102051.06
2023-04-19T02:55:38.832Z,102053.03
2023-04-19T02:58:10.458Z,102051.75
2023-04-19T03:00:43.230Z,102054.13
2023-04-19T03:03:14.627Z,102052.38
2023-04-19T03:05:41.390Z,102060.50
2023-04-19T03:08:08.023Z,102057.34
2023-04-19T03:10:34.848Z,102062.00
2023-04-19T03:13:02.032Z,102059.56
2023-04-19T03:15:29.756Z,102060.84
2023-04-19T03:17:56.422Z,102058.47
2023-04-19T03:20:23.113Z,102064.81
2023-04-19T03:22:50.084Z,102068.59
2023-04-19T03:25:17.611Z,102068.84
2023-04-19T03:27:49.632Z,102063.81
2023-04-19T03:30:20.004Z,102072.75
2023-04-19T03:32:47.965Z,102071.81
2023-04-19T03:35:15.082Z,102069.06
2023-04-19T03:37:41.662Z,102072.22
2023-04-19T03:40:13.971Z,102071.22
2023-04-19T03:42:40.611Z,102066.63
2023-04-19T03:45:14.571Z,102064.59
2023-04-19T03:47:46.337Z,102063.63
2023-04-19T03:50:13.210Z,102066.91
2023-04-19T03:52:42.327Z,102070.38
2023-04-19T03:55:12.558Z,102073.47
2023-04-19T03:57:40.927Z,102069.72
2023-04-19T04:00:33.311Z,102071.13
2023-04-19T04:03:01.013Z,102071.50
2023-04-19T04:05:28.726Z,102075.47
2023-04-19T04:07:56.415Z,102073.03
2023-04-19T04:10:23.445Z,102068.34
2023-04-19T04:12:50.876Z,102079.59
2023-04-19T04:15:24.122Z,102076.75
2023-04-19T04:17:53.162Z,102079.41
2023-04-19T04:20:20.635Z,102072.91
2023-04-19T04:22:47.627Z,102078.41
2023-04-19T04:25:17.250Z,102078.75
2023-04-19T04:27:45.119Z,102082.63
2023-04-19T04:30:16.238Z,102080.94
2023-04-19T04:32:45.047Z,102080.47
2023-04-19T04:35:12.529Z,102087.28
2023-04-19T04:37:48.818Z,102092.81
2023-04-19T04:40:16.277Z,102098.25
2023-04-19T04:42:42.993Z,102102.91
2023-04-19T04:45:10.832Z,102100.91
2023-04-19T04:47:39.017Z,102107.25
2023-04-19T04:50:07.479Z,102108.94
2023-04-19T04:52:34.252Z,102106.06
2023-04-19T04:55:09.423Z,102107.53
2023-04-19T04:57:41.112Z,102106.66
2023-04-19T05:00:12.673Z,102112.88
2023-04-19T05:02:47.399Z,102113.31
2023-04-19T05:05:14.172Z,102112.88
2023-04-19T05:07:41.084Z,102110.34
2023-04-19T05:10:08.348Z,102112.50
2023-04-19T05:12:43.208Z,102110.94
2023-04-19T05:15:11.968Z,102111.00
2023-04-19T05:17:43.136Z,102114.00
2023-04-19T05:20:10.738Z,102112.03
2023-04-19T05:22:38.408Z,102105.88
2023-04-19T05:25:09.896Z,102113.69
2023-04-19T05:27:37.257Z,102115.63
2023-04-19T05:30:06.632Z,102112.00
2023-04-19T05:32:35.341Z,102116.50
2023-04-19T05:35:04.308Z,102116.81
2023-04-19T05:37:31.072Z,102118.34
2023-04-19T05:39:58.283Z,102132.38
2023-04-19T05:42:25.556Z,102127.84
2023-04-19T05:44:52.244Z,102126.91
2023-04-19T05:47:19.321Z,102119.78
2023-04-19T05:50:06.767Z,102116.88
2023-04-19T05:52:40.714Z,102107.16
2023-04-19T05:55:08.355Z,102116.03
2023-04-19T05:57:40.101Z,102117.31
2023-04-19T06:00:09.460Z,102121.28
2023-04-19T06:02:59.293Z,102125.75
2023-04-19T06:05:26.851Z,102121.66
2023-04-19T06:10:31.330Z,102116.22
2023-04-19T06:13:04.206Z,102111.94
2023-04-19T06:15:30.966Z,102117.72
2023-04-19T06:17:59.334Z,102112.84
2023-04-19T06:20:26.439Z,102113.88
2023-04-19T06:22:52.982Z,102117.28
2023-04-19T06:25:19.620Z,102109.59
2023-04-19T06:27:46.237Z,102110.59
2023-04-19T06:30:14.864Z,102110.88
2023-04-19T06:32:41.595Z,102118.78
2023-04-19T06:35:08.529Z,102113.31
2023-04-19T06:37:35.397Z,102115.81
2023-04-19T06:40:02.714Z,102109.34
2023-04-19T06:42:29.550Z,102117.94
2023-04-19T06:44:57.236Z,102111.00
2023-04-19T06:47:23.914Z,102107.97
2023-04-19T06:49:50.514Z,102107.75
2023-04-19T06:52:17.167Z,102109.34
2023-04-19T06:54:49.195Z,102102.22
2023-04-19T06:57:16.800Z,102109.69
2023-04-19T06:59:43.639Z,102107.25
2023-04-19T07:02:10.786Z,102112.13
2023-04-19T07:04:37.869Z,102111.03
2023-04-19T07:07:04.564Z,102106.66
2023-04-19T07:09:31.139Z,102102.91
2023-04-19T07:11:57.714Z,102106.03
2023-04-19T07:14:24.274Z,102103.75
2023-04-19T07:16:51.682Z,102101.91
2023-04-19T07:19:20.600Z,102109.56
2023-04-19T07:21:47.191Z,102098.38
2023-04-19T07:24:14.109Z,102107.84
2023-04-19T07:26:40.847Z,102107.25
2023-04-19T07:29:07.442Z,102091.28
2023-04-19T07:31:34.192Z,102102.94
2023-04-19T07:34:00.819Z,102095.69
2023-04-19T07:36:27.767Z,102098.00
2023-04-19T07:38:54.643Z,102097.69
2023-04-19T07:41:21.263Z,102098.69
2023-04-19T07:43:47.829Z,102097.19
2023-04-19T07:46:16.412Z,102096.78
2023-04-19T07:48:43.134Z,102100.28
2023-04-19T07:51:14.408Z,102095.28
2023-04-19T07:53:41.826Z,102094.16
2023-04-19T07:56:10.950Z,102093.50
2023-04-19T07:58:42.273Z,102095.53
2023-04-19T08:01:09.697Z,102087.97
2023-04-19T08:03:37.659Z,102085.13
2023-04-19T08:06:07.440Z,102084.38
2023-04-19T08:08:34.302Z,102083.91
2023-04-19T08:11:02.426Z,102085.72
2023-04-19T08:13:29.773Z,102080.16
2023-04-19T08:18:26.781Z,102083.06
2023-04-19T08:20:53.869Z,102081.59
2023-04-19T08:23:24.453Z,102092.47
2023-04-19T08:25:52.672Z,102085.69
2023-04-19T08:28:19.536Z,102079.88
2023-04-19T08:30:46.204Z,102085.50
2023-04-19T08:33:12.875Z,102080.75
2023-04-19T08:35:41.382Z,102080.13
2023-04-19T08:38:08.827Z,102081.41
2023-04-19T08:40:35.724Z,102079.09
2023-04-19T08:43:06.906Z,102082.16
2023-04-19T08:45:34.401Z,102084.69
2023-04-19T08:48:02.735Z,102081.00
2023-04-19T08:50:36.157Z,102080.34
2023-04-19T08:56:03.529Z,102061.28
2023-04-19T08:58:52.016Z,102067.81
2023-04-19T09:01:34.022Z,102056.78
2023-04-19T09:04:26.228Z,102067.72
2023-04-19T09:06:53.046Z,102053.16
2023-04-19T09:11:51.834Z,102045.16
2023-04-19T09:14:19.853Z,102048.28
2023-04-19T09:16:47.400Z,102043.16
2023-04-19T09:19:23.517Z,102049.94
2023-04-19T09:21:53.144Z,102041.53
2023-04-19T09:24:19.761Z,102047.25
2023-04-19T09:26:54.847Z,102048.16
2023-04-19T09:29:21.549Z,102027.53
2023-04-19T09:31:58.393Z,102039.19
2023-04-19T09:34:25.147Z,102036.00
2023-04-19T09:36:57.620Z,102031.09
2023-04-19T09:39:37.914Z,102022.56
2023-04-19T09:42:04.502Z,102019.81
2023-04-19T09:45:01.785Z,102012.06
2023-04-19T09:47:25.153Z,102011.78
2023-04-19T09:50:21.929Z,102022.38
2023-04-19T09:52:50.310Z,102010.25
2023-04-19T09:55:26.774Z,102011.88
2023-04-19T09:57:53.950Z,102012.94
2023-04-19T10:00:21.794Z,102003.53
2023-04-19T10:02:55.807Z,101999.53
2023-04-19T10:05:24.544Z,101990.09
2023-04-19T10:07:54.908Z,101985.75
2023-04-19T10:10:40.816Z,101991.34
2023-04-19T10:13:19.624Z,101990.75
2023-04-19T10:15:52.477Z,101978.19
2023-04-19T10:18:20.610Z,101975.31
2023-04-19T10:20:58.378Z,101967.41
2023-04-19T10:23:25.210Z,101955.41
2023-04-19T10:25:57.513Z,101953.00
2023-04-19T10:28:24.107Z,101956.31
2023-04-19T10:30:57.384Z,101959.34
2023-04-19T10:33:28.873Z,101948.41
2023-04-19T10:35:57.726Z,101956.03
2023-04-19T10:38:36.969Z,101949.69
2023-04-19T10:41:04.450Z,101947.22
2023-04-19T10:43:34.208Z,101940.97
2023-04-19T10:46:07.996Z,101943.94
2023-04-19T10:48:39.521Z,101935.94
2023-04-19T10:51:11.802Z,101938.94
2023-04-19T10:53:49.192Z,101927.06
2023-04-19T10:56:17.832Z,101929.25
2023-04-19T10:59:03.124Z,101916.34
2023-04-19T11:01:43.591Z,101912.59
2023-04-19T11:04:17.391Z,101912.22
2023-04-19T11:06:53.357Z,101899.63
2023-04-19T11:09:30.353Z,101903.13
2023-04-19T11:12:11.027Z,101885.50
2023-04-19T11:14:41.267Z,101887.13
2023-04-19T11:17:34.091Z,101877.63
2023-04-19T11:20:02.964Z,101878.91
2023-04-19T11:22:41.020Z,101872.09
2023-04-19T11:25:18.987Z,101870.06
2023-04-19T11:27:47.836Z,101865.59
2023-04-19T11:30:20.628Z,101848.84
2023-04-19T11:32:52.498Z,101851.63
2023-04-19T11:35:23.510Z,101843.38
2023-04-19T11:37:50.636Z,101840.75
2023-04-19T11:40:21.946Z,101834.59
2023-04-19T11:42:54.880Z,101844.78
2023-04-19T11:45:40.373Z,101852.38
2023-04-19T11:48:14.003Z,101839.41
2023-04-19T11:50:42.149Z,101833.66
2023-04-19T11:53:18.008Z,101829.09
2023-04-19T11:55:46.334Z,101825.03
2023-04-19T11:58:57.697Z,101821.09
2023-04-19T12:01:25.936Z,101816.66
2023-04-19T12:03:55.219Z,101819.88
2023-04-19T12:06:21.835Z,101819.09
2023-04-19T12:08:53.291Z,101820.25
2023-04-19T12:11:24.378Z,101811.09
2023-04-19T12:14:14.080Z,101810.13
2023-04-19T12:16:41.311Z,101810.00
2023-04-19T12:19:17.492Z,101815.72
2023-04-19T12:21:45.375Z,101809.25
2023-04-19T12:24:14.926Z,101805.88
2023-04-19T12:26:57.911Z,101807.09
2023-04-19T12:29:27.105Z,101797.81
2023-04-19T12:31:53.807Z,101805.25
2023-04-19T12:34:20.904Z,101806.94
2023-04-19T12:36:47.478Z,101789.31
2023-04-19T12:39:14.331Z,101793.47
2023-04-19T12:41:41.034Z,101786.38
2023-04-19T12:44:07.677Z,101793.50
2023-04-19T12:46:34.316Z,101790.91
2023-04-19T12:49:01.140Z,101772.81
2023-04-19T12:51:27.982Z,101778.44
2023-04-19T12:53:54.564Z,101775.91
2023-04-19T12:56:21.386Z,101770.13
2023-04-19T12:58:48.011Z,101766.63
2023-04-19T13:01:14.605Z,101759.34
2023-04-19T13:03:41.433Z,101744.94
2023-04-19T13:06:08.129Z,101744.78
2023-04-19T13:08:44.936Z,101741.63
2023-04-19T13:11:13.625Z,101734.28
2023-04-19T13:13:40.216Z,101734.34
2023-04-19T13:16:07.983Z,101727.19
2023-04-19T13:18:35.082Z,101730.47
2023-04-19T13:21:01.749Z,101724.03
2023-04-19T13:23:28.472Z,101713.56
2023-04-19T13:25:55.027Z,101715.88
2023-04-19T13:28:21.585Z,101711.72
2023-04-19T13:30:48.270Z,101699.09
2023-04-19T13:33:15.206Z,101700.91
2023-04-19T13:35:41.787Z,101692.19
2023-04-19T13:38:08.384Z,101696.50
2023-04-19T13:40:35.005Z,101688.91
2023-04-19T13:43:01.644Z,101676.63
2023-04-19T13:45:28.215Z,101679.94
2023-04-19T13:47:54.886Z,101674.59
2023-04-19T13:50:21.626Z,101674.81
2023-04-19T13:52:48.482Z,101693.94
2023-04-19T13:55:15.116Z,101668.25
2023-04-19T13:57:45.469Z,101670.94
2023-04-19T14:00:12.595Z,101667.69
2023-04-19T14:02:39.536Z,101665.06
2023-04-19T14:05:06.830Z,101665.91
2023-04-19T14:07:33.849Z,101655.53
2023-04-19T14:10:00.782Z,101663.63
2023-04-19T14:12:27.479Z,101658.06
2023-04-19T14:14:54.013Z,101652.88
2023-04-19T14:17:20.698Z,101654.03
2023-04-19T14:19:47.284Z,101650.94
2023-04-19T14:22:18.706Z,101644.13
2023-04-19T14:24:46.335Z,101647.13
2023-04-19T14:27:12.986Z,101639.91
2023-04-19T14:29:39.822Z,101638.03
2023-04-19T14:32:23.544Z,101639.91
2023-04-19T14:34:51.930Z,101648.00
2023-04-19T14:37:19.623Z,101646.69
2023-04-19T14:39:46.540Z,101653.72
2023-04-19T14:42:13.622Z,101634.16
2023-04-19T14:44:40.894Z,101625.94
2023-04-19T14:47:07.868Z,101630.09
2023-04-19T14:49:34.486Z,101631.56
2023-04-19T14:52:01.090Z,101628.03
2023-04-19T14:54:27.813Z,101628.69
2023-04-19T14:56:54.441Z,101629.72
2023-04-19T14:59:21.482Z,101618.41
2023-04-19T15:01:48.264Z,101613.38
2023-04-19T15:04:15.017Z,101617.38
2023-04-19T15:06:41.877Z,101616.41
2023-04-19T15:09:08.554Z,101625.69
2023-04-19T15:11:35.259Z,101615.03
2023-04-19T15:14:02.363Z,101609.97
2023-04-19T15:16:29.104Z,101614.56
2023-04-19T15:18:55.832Z,101618.25
2023-04-19T15:21:24.623Z,101610.66
2023-04-19T15:23:51.481Z,101614.25
2023-04-19T15:26:18.129Z,101614.34
2023-04-19T15:28:44.713Z,101615.78
2023-04-19T15:31:11.492Z,101627.31
2023-04-19T15:33:38.406Z,101625.69
2023-04-19T15:36:05.583Z,101606.44
2023-04-19T15:38:32.862Z,101619.81
2023-04-19T15:41:00.940Z,101614.38
2023-04-19T15:43:27.612Z,101619.47
2023-04-19T15:45:54.447Z,101617.97
2023-04-19T15:48:21.254Z,101623.03
2023-04-19T15:50:47.875Z,101612.69
2023-04-19T15:53:15.025Z,101611.34
2023-04-19T15:55:41.755Z,101613.31
2023-04-19T15:58:08.340Z,101621.16
2023-04-19T16:00:34.934Z,101624.81
2023-04-19T16:03:01.683Z,101618.91
2023-04-19T16:05:28.659Z,101627.66
2023-04-19T16:08:03.589Z,101632.09
2023-04-19T16:10:30.515Z,101635.91
2023-04-19T16:12:57.283Z,101642.22
2023-04-19T16:15:24.307Z,101634.38
2023-04-19T16:17:52.260Z,101628.19
2023-04-19T16:20:19.305Z,101628.22
2023-04-19T16:22:46.176Z,101626.69
2023-04-19T16:25:14.184Z,101627.69
2023-04-19T16:27:43.215Z,101620.59
2023-04-19T16:30:11.393Z,101622.47
2023-04-19T16:32:38.165Z,101638.81
2023-04-19T16:35:05.797Z,101619.91
2023-04-19T16:37:33.104Z,101621.00
2023-04-19T16:40:03.893Z,101627.78
2023-04-19T16:42:30.586Z,101617.34
2023-04-19T16:44:57.195Z,101615.72
2023-04-19T16:47:23.756Z,101623.38
2023-04-19T16:49:50.639Z,101621.72
2023-04-19T16:52:17.537Z,101614.66
2023-04-19T16:54:44.807Z,101616.38
2023-04-19T16:57:11.616Z,101617.97
2023-04-19T16:59:38.195Z,101619.03
2023-04-19T17:02:06.422Z,101614.56
2023-04-19T17:04:33.585Z,101615.00
2023-04-19T17:07:00.967Z,101612.09
2023-04-19T17:09:27.773Z,101619.97
2023-04-19T17:11:56.434Z,101615.34
2023-04-19T17:14:23.833Z,101616.41
2023-04-19T17:16:50.814Z,101611.03
2023-04-19T17:19:17.739Z,101612.97
2023-04-19T17:21:44.642Z,101613.97
2023-04-19T17:24:11.270Z,101610.59
2023-04-19T17:26:37.921Z,101609.72
2023-04-19T17:29:05.037Z,101603.06
2023-04-19T17:31:31.825Z,101610.72
2023-04-19T17:33:58.674Z,101600.34
2023-04-19T17:36:25.210Z,101602.25
2023-04-19T17:38:51.811Z,101600.41
2023-04-19T17:41:18.437Z,101602.41
2023-04-19T17:43:46.130Z,101604.97
2023-04-19T17:46:13.588Z,101606.09
2023-04-19T17:48:40.859Z,101608.34
2023-04-19T17:51:07.930Z,101615.00
2023-04-19T17:53:34.678Z,101617.50
2023-04-19T17:56:01.764Z,101614.78
2023-04-19T17:58:28.330Z,101606.44
2023-04-19T18:00:55.125Z,101611.44
2023-04-19T18:03:21.958Z,101610.31
2023-04-19T18:05:49.374Z,101614.13
2023-04-19T18:08:15.968Z,101604.72
2023-04-19T18:10:42.611Z,101610.44
2023-04-19T18:13:09.217Z,101611.59
2023-04-19T18:15:36.198Z,101614.38
2023-04-19T18:18:03.134Z,101615.03
2023-04-19T18:20:29.935Z,101614.78
2023-04-19T18:22:59.187Z,101619.97
2023-04-19T18:25:25.870Z,101619.53
2023-04-19T18:27:52.398Z,101623.19
2023-04-19T18:30:18.968Z,101619.69
2023-04-19T18:32:46.606Z,101623.94
2023-04-19T18:35:13.600Z,101622.75
2023-04-19T18:37:40.237Z,101626.47
2023-04-19T18:40:07.591Z,101620.47
2023-04-19T18:42:34.233Z,101630.88
2023-04-19T18:45:00.867Z,101629.06
2023-04-19T18:47:27.688Z,101638.34
2023-04-19T18:50:04.398Z,101638.88
2023-04-19T18:52:33.160Z,101643.84
2023-04-19T18:54:59.861Z,101642.00
2023-04-19T18:57:27.356Z,101647.84
2023-04-19T18:59:56.480Z,101652.50
2023-04-19T19:02:23.325Z,101647.28
2023-04-19T19:04:56.901Z,101650.63
2023-04-19T19:07:36.419Z,101644.41
2023-04-19T19:10:17.258Z,101646.22
2023-04-19T19:12:45.834Z,101649.88
2023-04-19T19:15:16.705Z,101652.03
2023-04-19T19:17:43.778Z,101653.78
2023-04-19T19:20:12.580Z,101646.06
2023-04-19T19:22:39.938Z,101647.66
2023-04-19T19:25:07.226Z,101646.34
2023-04-19T19:27:33.874Z,101651.44
2023-04-19T19:30:01.204Z,101648.94
2023-04-19T19:32:28.313Z,101649.16
2023-04-19T19:34:58.947Z,101647.56
2023-04-19T19:37:28.658Z,101639.22
2023-04-19T19:39:56.904Z,101655.22
2023-04-19T19:42:23.921Z,101639.59
2023-04-19T19:44:55.285Z,101646.81
2023-04-19T19:47:23.917Z,101648.31
2023-04-19T19:50:33.681Z,101649.88
2023-04-19T19:52:38.508Z,101649.94
2023-04-19T19:55:05.997Z,101645.06
2023-04-19T20:02:54.282Z,101649.41
2023-04-19T20:05:23.497Z,101652.31
2023-04-19T20:08:00.608Z,101651.03
2023-04-19T20:10:28.034Z,101648.56
2023-04-19T20:12:56.930Z,101644.28
2023-04-19T20:15:23.495Z,101650.81
2023-04-19T20:17:50.367Z,101648.28
2023-04-19T20:20:17.095Z,101653.03
2023-04-19T20:22:43.656Z,101650.97
2023-04-19T20:25:11.122Z,101653.66
2023-04-19T20:27:40.196Z,101648.13
2023-04-19T20:30:08.724Z,101642.28
2023-04-19T20:32:42.273Z,101646.41
2023-04-19T20:35:12.438Z,101639.22
2023-04-19T20:37:39.891Z,101633.31
2023-04-19T20:40:12.110Z,101633.38
2023-04-19T20:42:39.130Z,101627.50
2023-04-19T20:45:07.570Z,101625.38
2023-04-19T20:47:34.296Z,101622.09
2023-04-19T20:50:01.039Z,101628.19
2023-04-19T20:52:27.620Z,101625.44
2023-04-19T20:54:56.228Z,101625.56
2023-04-19T20:57:22.910Z,101626.81
2023-04-19T20:59:50.025Z,101630.81
2023-04-19T21:02:16.874Z,101620.78
2023-04-19T21:04:43.524Z,101620.97
2023-04-19T21:07:10.197Z,101622.84
2023-04-19T21:09:38.103Z,101629.31
2023-04-19T21:12:04.852Z,101625.22
2023-04-19T21:14:33.550Z,101620.25
2023-04-19T21:17:01.910Z,101625.53
2023-04-19T21:19:28.689Z,101616.41
2023-04-19T21:21:55.779Z,101610.16
2023-04-19T21:24:22.360Z,101607.31
2023-04-19T21:26:49.186Z,101598.59
2023-04-19T21:29:16.053Z,101587.94
2023-04-19T21:31:42.960Z,101594.59
2023-04-19T21:34:09.577Z,101593.75
2023-04-19T21:36:36.172Z,101583.91
2023-04-19T21:39:04.040Z,101580.03
2023-04-19T21:41:30.762Z,101582.75
2023-04-19T21:43:57.314Z,101580.53
2023-04-19T21:46:24.147Z,101567.97
2023-04-19T21:48:51.186Z,101574.06
2023-04-19T21:51:18.729Z,101570.75
2023-04-19T21:53:45.417Z,101571.94
2023-04-19T21:56:12.127Z,101570.19
2023-04-19T21:58:38.769Z,101565.84
2023-04-19T22:01:05.516Z,101563.16
2023-04-19T22:03:32.772Z,101568.88
2023-04-19T22:06:01.796Z,101567.97
2023-04-19T22:08:30.048Z,101568.00
2023-04-19T22:11:00.142Z,101573.63
2023-04-19T22:13:28.194Z,101567.91
2023-04-19T22:15:57.045Z,101558.38
2023-04-19T22:18:23.940Z,101546.66
2023-04-19T22:20:52.129Z,101544.47
2023-04-19T22:23:19.045Z,101544.81
2023-04-19T22:25:45.991Z,101540.00
2023-04-19T22:28:13.047Z,101535.22
2023-04-19T22:30:39.674Z,101533.09
2023-04-19T22:33:06.597Z,101532.88
2023-04-19T22:35:33.246Z,101523.13
2023-04-19T22:37:59.836Z,101520.41
2023-04-19T22:40:26.428Z,101513.44
2023-04-19T22:42:53.031Z,101520.28
2023-04-19T22:45:19.611Z,101520.91
2023-04-19T22:47:46.346Z,101509.59
2023-04-19T22:50:13.095Z,101512.97
2023-04-19T22:52:40.972Z,101500.03
2023-04-19T22:55:07.869Z,101501.88
2023-04-19T22:57:34.510Z,101507.94
2023-04-19T23:00:01.089Z,101493.28
2023-04-19T23:02:27.710Z,101490.56
2023-04-19T23:05:47.754Z,101486.00
2023-04-19T23:08:15.116Z,101473.59
2023-04-19T23:10:42.269Z,101484.44
2023-04-19T23:13:10.386Z,101489.75
2023-04-19T23:15:38.173Z,101479.25
2023-04-19T23:18:05.282Z,101470.72
2023-04-19T23:20:32.056Z,101459.66
2023-04-19T23:22:59.178Z,101458.75
2023-04-19T23:25:26.020Z,101453.69
2023-04-19T23:27:52.658Z,101444.50
2023-04-19T23:30:19.502Z,101432.31
2023-04-19T23:32:46.253Z,101438.13
2023-04-19T23:35:12.909Z,101423.50
2023-04-19T23:37:40.890Z,101419.19
2023-04-19T23:40:09.042Z,101418.81
2023-04-19T23:42:37.666Z,101418.53
2023-04-19T23:45:05.818Z,101421.78
2023-04-19T23:47:32.608Z,101406.94
2023-04-19T23:49:59.565Z,101402.91
2023-04-19T23:52:27.387Z,101405.88
2023-04-19T23:54:53.949Z,101402.22
2023-04-19T23:57:20.719Z,101402.41
2023-04-19T23:59:47.350Z,101389.06
